Time;durP1;ratioP1;P1;durP2;ratioP2;P2;SDS_P1;SDS_P2;PMS_P1;PMS_P2;Temp;Humidity;BMP_temperature;BMP_pressure;BME280_temperature;BME280_humidity;BME280_pressure;Samples;Min_cycle;Max_cycle;Signal;HPM_P1;HPM_P2
2022/11/12 00:00:00;;;;;;;43.27;20.47;;;6.50;99.90;;;;;;4400848;28;658674;-64
2022/11/12 00:02:47;;;;;;;44.37;20.23;;;6.40;99.90;;;;;;4418786;28;658439;-63
2022/11/12 00:05:34;;;;;;;40.80;19.23;;;6.40;99.90;;;;;;4414322;28;658680;-62
2022/11/12 00:08:23;;;;;;;45.10;18.73;;;6.50;99.90;;;;;;4391427;28;660186;-63
2022/11/12 00:11:10;;;;;;;39.27;19.93;;;6.50;99.90;;;;;;4402804;28;658469;-64
2022/11/12 00:13:57;;;;;;;42.00;19.37;;;6.60;99.90;;;;;;4412310;28;660061;-63
2022/11/12 00:16:44;;;;;;;37.60;19.47;;;6.70;99.90;;;;;;4414143;28;659306;-63
2022/11/12 00:19:31;;;;;;;43.23;18.90;;;6.60;99.90;;;;;;4395095;28;658477;-62
2022/11/12 00:22:18;;;;;;;39.30;18.53;;;6.60;99.90;;;;;;4414079;28;659619;-62
2022/11/12 00:25:08;;;;;;;43.60;18.93;;;6.60;99.90;;;;;;4395172;28;658872;-63
2022/11/12 00:28:01;;;;;;;43.42;18.83;;;6.60;99.90;;;;;;4388747;28;658665;-65
2022/11/12 00:30:48;;;;;;;43.33;19.87;;;6.50;99.90;;;;;;4391383;28;660344;-63
2022/11/12 00:33:38;;;;;;;44.65;19.40;;;6.60;99.90;;;;;;4400073;28;658472;-64
2022/11/12 00:36:25;;;;;;;42.57;19.27;;;6.60;99.90;;;;;;4395063;28;658578;-65
2022/11/12 00:39:12;;;;;;;43.90;20.87;;;6.60;99.90;;;;;;4417887;28;658786;-63
2022/11/12 00:42:01;;;;;;;50.33;20.03;;;6.70;99.90;;;;;;4413540;28;659600;-63
2022/11/12 00:44:48;;;;;;;39.20;16.93;;;6.60;99.90;;;;;;4391001;28;659702;-63
2022/11/12 00:47:35;;;;;;;42.40;18.67;;;6.70;99.90;;;;;;4395013;28;658998;-63
2022/11/12 00:50:22;;;;;;;39.47;18.43;;;6.60;99.90;;;;;;4413752;28;660040;-63
2022/11/12 00:53:10;;;;;;;42.70;18.40;;;6.60;99.90;;;;;;4404859;28;658643;-64
2022/11/12 00:56:01;;;;;;;38.58;16.90;;;6.50;99.90;;;;;;4417278;28;659930;-63
2022/11/12 00:58:49;;;;;;;35.90;15.53;;;6.30;99.90;;;;;;4387599;28;659086;-64
2022/11/12 01:01:38;;;;;;;39.67;16.87;;;6.10;99.90;;;;;;4395563;28;658869;-64
2022/11/12 01:04:25;;;;;;;37.95;15.80;;;5.90;99.90;;;;;;4400646;28;658397;-65
2022/11/12 01:07:14;;;;;;;39.87;15.63;;;5.70;99.90;;;;;;4414161;28;660372;-63
2022/11/12 01:10:01;;;;;;;36.90;14.63;;;5.60;99.90;;;;;;4395602;28;658540;-64
2022/11/12 01:12:48;;;;;;;29.17;14.80;;;5.50;99.90;;;;;;4414555;28;659511;-63
2022/11/12 01:15:42;;;;;;;33.43;14.97;;;5.40;99.90;;;;;;4395171;28;658493;-65
2022/11/12 01:18:29;;;;;;;29.93;15.00;;;5.30;99.90;;;;;;4391102;28;658559;-63
2022/11/12 01:21:16;;;;;;;33.87;14.80;;;5.20;99.90;;;;;;4395256;28;659242;-63
2022/11/12 01:24:03;;;;;;;37.43;14.83;;;5.20;99.90;;;;;;4413966;28;659478;-63
2022/11/12 01:26:50;;;;;;;32.93;13.83;;;5.10;99.90;;;;;;4394953;28;658831;-63
2022/11/12 01:29:37;;;;;;;32.93;14.80;;;4.90;99.90;;;;;;4414082;28;659623;-63
2022/11/12 01:32:26;;;;;;;39.90;14.67;;;4.80;99.90;;;;;;4413984;28;658603;-63
2022/11/12 01:35:13;;;;;;;35.37;14.57;;;4.80;99.90;;;;;;4390888;28;658809;-63
2022/11/12 01:38:00;;;;;;;34.23;15.17;;;4.80;99.90;;;;;;4394761;28;658832;-65
2022/11/12 01:40:47;;;;;;;33.73;16.30;;;4.70;99.90;;;;;;4413583;28;659324;-63
2022/11/12 01:43:35;;;;;;;30.27;14.77;;;4.70;99.90;;;;;;4410238;28;658852;-65
2022/11/12 01:46:24;;;;;;;34.38;15.43;;;4.60;99.90;;;;;;4417231;28;660208;-63
2022/11/12 01:49:14;;;;;;;33.07;15.57;;;4.50;99.90;;;;;;4391476;28;658798;-64
2022/11/12 01:52:08;;;;;;;39.57;15.63;;;4.40;99.90;;;;;;4393533;28;658677;-63
2022/11/12 01:54:56;;;;;;;37.80;15.93;;;4.40;99.90;;;;;;4377635;28;658625;-65
2022/11/12 01:57:47;;;;;;;32.83;15.10;;;4.20;99.90;;;;;;4413591;28;659062;-64
2022/11/12 02:00:34;;;;;;;34.85;14.82;;;4.20;99.90;;;;;;4390438;28;658658;-63
2022/11/12 02:03:22;;;;;;;28.47;15.00;;;4.10;99.90;;;;;;4394287;28;659956;-64
2022/11/12 02:06:13;;;;;;;34.03;15.23;;;4.00;99.90;;;;;;4413285;28;658587;-63
2022/11/12 02:09:00;;;;;;;31.60;15.40;;;4.00;99.90;;;;;;4380896;28;658890;-65
2022/11/12 02:11:47;;;;;;;32.50;15.02;;;3.80;99.90;;;;;;4417546;28;658891;-63
2022/11/12 02:14:33;;;;;;;38.60;15.60;;;3.80;99.90;;;;;;4413506;28;659212;-64
2022/11/12 02:17:20;;;;;;;30.13;14.47;;;3.70;99.90;;;;;;4394115;28;658858;-64
2022/11/12 02:20:09;;;;;;;28.43;15.33;;;3.70;99.90;;;;;;4413228;28;660038;-63
2022/11/12 02:22:58;;;;;;;32.27;15.23;;;3.40;99.90;;;;;;4394553;28;659738;-63
2022/11/12 02:25:45;;;;;;;32.67;15.23;;;3.30;99.90;;;;;;4395259;28;658709;-65
2022/11/12 02:28:32;;;;;;;33.88;14.55;;;3.30;99.90;;;;;;4417253;28;658875;-63
2022/11/12 02:31:19;;;;;;;28.97;14.60;;;3.30;99.90;;;;;;4413306;28;658334;-63
2022/11/12 02:34:06;;;;;;;29.30;14.87;;;3.30;99.90;;;;;;4391453;28;658762;-63
2022/11/12 02:36:53;;;;;;;37.33;16.10;;;3.20;99.90;;;;;;4417280;28;659052;-64
2022/11/12 02:39:42;;;;;;;37.30;18.03;;;3.30;99.90;;;;;;4394095;28;658888;-64
2022/11/12 02:42:29;;;;;;;41.43;17.23;;;3.30;99.90;;;;;;4410513;28;658216;-63
2022/11/12 02:45:16;;;;;;;51.33;19.40;;;3.30;99.90;;;;;;4394183;28;658449;-63
2022/11/12 02:48:03;;;;;;;41.60;19.03;;;3.20;99.90;;;;;;4416637;28;659065;-63
2022/11/12 02:50:50;;;;;;;40.33;18.87;;;3.20;99.90;;;;;;4394021;28;659034;-63
2022/11/12 02:53:37;;;;;;;38.47;19.00;;;3.20;99.90;;;;;;4413076;28;659652;-63
2022/11/12 02:56:26;;;;;;;45.27;20.80;;;3.20;99.90;;;;;;4412697;28;658927;-65
2022/11/12 02:59:13;;;;;;;46.50;22.10;;;3.30;99.90;;;;;;4415383;28;659116;-63
2022/11/12 03:02:01;;;;;;;41.10;19.60;;;3.30;99.90;;;;;;4397486;28;659246;-64
2022/11/12 03:04:48;;;;;;;37.03;18.60;;;3.20;99.90;;;;;;4416166;28;658601;-63
2022/11/12 03:07:35;;;;;;;41.00;19.40;;;3.20;99.90;;;;;;4408559;28;659476;-65
2022/11/12 03:10:22;;;;;;;40.63;18.60;;;3.20;99.90;;;;;;4419896;28;658914;-64
2022/11/12 03:13:11;;;;;;;45.23;20.00;;;3.20;99.90;;;;;;4416196;28;658430;-63
2022/11/12 03:16:00;;;;;;;42.93;19.10;;;3.20;99.90;;;;;;4393082;28;659248;-63
2022/11/12 03:18:48;;;;;;;52.67;18.77;;;3.10;99.90;;;;;;4392828;28;659743;-63
2022/11/12 03:21:35;;;;;;;38.37;19.23;;;3.10;99.90;;;;;;4408841;28;659342;-65
2022/11/12 03:24:22;;;;;;;44.05;19.40;;;3.10;99.90;;;;;;4419937;28;658661;-63
2022/11/12 03:27:09;;;;;;;40.33;19.20;;;3.10;99.90;;;;;;4416061;28;658653;-63
2022/11/12 03:29:58;;;;;;;42.97;19.50;;;3.00;99.90;;;;;;4393737;28;658594;-63
2022/11/12 03:32:45;;;;;;;38.33;17.40;;;3.00;99.90;;;;;;4407284;28;658667;-65
2022/11/12 03:35:32;;;;;;;38.87;19.20;;;3.00;99.90;;;;;;4419885;28;658663;-63
2022/11/12 03:38:19;;;;;;;38.77;18.07;;;3.00;99.90;;;;;;4415639;28;658866;-63
2022/11/12 03:41:06;;;;;;;37.70;18.20;;;3.00;99.90;;;;;;4396760;28;659003;-63
2022/11/12 03:43:53;;;;;;;46.57;17.93;;;2.90;99.90;;;;;;4415517;28;659610;-63
2022/11/12 03:46:42;;;;;;;45.53;18.27;;;2.90;99.90;;;;;;4396564;28;658663;-64
2022/11/12 03:49:29;;;;;;;45.33;19.27;;;2.90;99.90;;;;;;4415571;28;659903;-63
2022/11/12 03:52:16;;;;;;;43.83;18.57;;;2.90;99.90;;;;;;4396816;28;658662;-64
2022/11/12 03:55:03;;;;;;;40.88;18.02;;;2.90;99.90;;;;;;4415485;28;659301;-63
2022/11/12 03:57:51;;;;;;;41.17;18.73;;;2.80;99.90;;;;;;4396476;28;659179;-63
2022/11/12 04:00:38;;;;;;;44.50;18.40;;;2.80;99.90;;;;;;4417622;28;659474;-63
2022/11/12 04:03:26;;;;;;;40.97;18.07;;;2.70;99.90;;;;;;4398797;28;658425;-65
2022/11/12 04:09:18;;;;;;;39.47;17.50;;;2.70;99.90;;;;;;4388206;28;658698;-64
2022/11/12 04:15:07;;;;;;;38.03;17.33;;;2.60;99.90;;;;;;4368245;28;658994;-63
2022/11/12 04:24:05;;;;;;;40.60;16.73;;;2.60;99.90;;;;;;4379083;28;659083;-66
2022/11/12 04:26:52;;;;;;;38.43;16.93;;;2.60;99.90;;;;;;4415030;28;660748;-63
2022/11/12 04:32:47;;;;;;;36.50;17.10;;;2.60;99.90;;;;;;4388674;28;659899;-64
2022/11/12 04:35:34;;;;;;;39.37;17.37;;;2.60;99.90;;;;;;4380998;28;658593;-63
2022/11/12 04:38:22;;;;;;;35.10;17.37;;;2.50;99.90;;;;;;4395645;28;659192;-64
2022/11/12 04:47:18;;;;;;;36.40;16.33;;;2.40;99.90;;;;;;4391638;28;658906;-63
2022/11/12 04:50:07;;;;;;;34.57;16.10;;;2.40;99.90;;;;;;4395514;28;658691;-65
2022/11/12 04:52:54;;;;;;;30.87;16.10;;;2.40;99.90;;;;;;4412811;28;660034;-63
2022/11/12 04:55:42;;;;;;;40.07;16.30;;;2.40;99.90;;;;;;4394238;28;658667;-64
2022/11/12 04:58:29;;;;;;;35.90;17.17;;;2.30;99.90;;;;;;4414126;28;658893;-63
2022/11/12 05:01:16;;;;;;;45.07;17.80;;;2.30;99.90;;;;;;4395740;28;659332;-63
2022/11/12 05:04:04;;;;;;;41.97;18.80;;;2.30;99.90;;;;;;4414356;28;658870;-64
2022/11/12 05:06:51;;;;;;;36.73;17.07;;;2.30;99.90;;;;;;4393027;28;658524;-64
2022/11/12 05:09:38;;;;;;;41.37;18.83;;;2.20;99.90;;;;;;4417545;28;660002;-64
2022/11/12 05:12:26;;;;;;;40.93;18.93;;;2.20;99.90;;;;;;4398201;28;658252;-65
2022/11/12 05:15:13;;;;;;;43.77;19.20;;;2.20;99.90;;;;;;4414116;28;659300;-64
2022/11/12 05:18:01;;;;;;;35.70;18.07;;;2.20;99.90;;;;;;4388746;28;658596;-64
2022/11/12 05:20:51;;;;;;;38.00;18.60;;;2.20;99.90;;;;;;4413487;28;659457;-63
2022/11/12 05:23:38;;;;;;;41.20;19.47;;;2.10;99.90;;;;;;4391182;28;659760;-64
2022/11/12 05:26:25;;;;;;;38.87;19.47;;;2.10;99.90;;;;;;4395169;28;659283;-64
2022/11/12 05:29:14;;;;;;;39.80;17.93;;;2.10;99.90;;;;;;4414031;28;660689;-64
2022/11/12 05:32:01;;;;;;;36.87;18.43;;;2.10;99.90;;;;;;4390732;28;658848;-64
2022/11/12 05:34:48;;;;;;;43.70;19.43;;;2.10;99.90;;;;;;4407335;28;659351;-63
2022/11/12 05:37:35;;;;;;;36.60;17.87;;;2.00;99.90;;;;;;4396598;28;658399;-65
2022/11/12 05:40:22;;;;;;;41.08;16.95;;;2.00;99.90;;;;;;4417839;28;658665;-63
2022/11/12 05:43:09;;;;;;;41.50;16.47;;;2.00;99.90;;;;;;4413594;28;658710;-63
2022/11/12 05:45:58;;;;;;;38.57;17.53;;;2.00;99.90;;;;;;4391729;28;659627;-63
2022/11/12 05:48:45;;;;;;;38.67;17.60;;;2.00;99.90;;;;;;4401803;28;658442;-65
2022/11/12 05:51:32;;;;;;;44.25;17.60;;;2.00;99.90;;;;;;4417522;28;660550;-63
2022/11/12 05:54:19;;;;;;;42.97;20.40;;;1.90;99.90;;;;;;4413424;28;658351;-63
2022/11/12 05:57:06;;;;;;;42.80;20.33;;;1.90;99.90;;;;;;4393522;28;658788;-63
2022/11/12 05:59:53;;;;;;;47.73;21.27;;;1.90;99.90;;;;;;4405719;28;659654;-63
2022/11/12 06:02:42;;;;;;;53.77;22.33;;;2.00;99.90;;;;;;4393560;28;658863;-64
2022/11/12 06:05:29;;;;;;;47.97;22.07;;;2.00;99.90;;;;;;4412175;28;658375;-63
2022/11/12 06:08:16;;;;;;;46.97;22.07;;;2.00;99.90;;;;;;4393314;28;659119;-64
2022/11/12 06:11:03;;;;;;;49.08;23.02;;;1.90;99.90;;;;;;4412356;28;659224;-63
2022/11/12 06:13:50;;;;;;;48.93;22.10;;;1.90;99.90;;;;;;4393410;28;658732;-64
2022/11/12 06:16:37;;;;;;;44.17;20.67;;;2.00;99.90;;;;;;4416270;28;659672;-64
2022/11/12 06:19:26;;;;;;;57.47;24.20;;;2.00;99.90;;;;;;4412376;28;658971;-63
2022/11/12 06:22:13;;;;;;;48.13;22.70;;;2.00;99.90;;;;;;4389341;28;659605;-64
2022/11/12 06:25:00;;;;;;;51.67;23.07;;;2.20;99.90;;;;;;4401619;28;658665;-66
2022/11/12 06:27:47;;;;;;;49.78;21.98;;;2.30;99.90;;;;;;4416137;28;659806;-64
2022/11/12 06:30:34;;;;;;;46.77;21.80;;;2.40;99.90;;;;;;4411876;28;658647;-64
2022/11/12 06:33:21;;;;;;;45.73;22.13;;;2.40;99.90;;;;;;4389471;28;658717;-63
2022/11/12 06:36:10;;;;;;;50.47;22.50;;;2.50;99.90;;;;;;4412021;28;659146;-63
2022/11/12 06:38:57;;;;;;;51.80;23.00;;;2.50;99.90;;;;;;4382047;28;659398;-63
2022/11/12 06:41:45;;;;;;;48.43;24.73;;;2.60;99.90;;;;;;4409837;28;658579;-65
2022/11/12 06:44:32;;;;;;;56.00;26.23;;;2.70;99.90;;;;;;4416023;28;658636;-64
2022/11/12 06:47:19;;;;;;;51.40;24.90;;;2.80;99.90;;;;;;4412200;28;658372;-63
2022/11/12 06:50:07;;;;;;;60.00;27.43;;;2.90;99.90;;;;;;4389254;28;658717;-63
2022/11/12 06:52:59;;;;;;;58.47;26.77;;;3.00;99.90;;;;;;4411561;28;658887;-63
2022/11/12 06:55:46;;;;;;;53.40;23.63;;;3.10;99.90;;;;;;4366154;28;660032;-64
2022/11/12 06:58:33;;;;;;;56.50;25.80;;;3.20;99.90;;;;;;4411600;28;659648;-64
2022/11/12 07:01:20;;;;;;;48.07;24.33;;;3.30;99.90;;;;;;4392797;28;659599;-65
2022/11/12 07:04:07;;;;;;;59.23;26.10;;;3.50;99.90;;;;;;4407034;28;660002;-64
2022/11/12 07:06:54;;;;;;;48.53;24.03;;;3.70;99.90;;;;;;4411946;28;658268;-63
2022/11/12 07:09:43;;;;;;;53.57;26.63;;;3.80;99.90;;;;;;4392727;28;659281;-64
2022/11/12 07:12:30;;;;;;;58.80;29.88;;;4.00;99.90;;;;;;4397669;28;658745;-65
2022/11/12 07:15:17;;;;;;;66.20;30.97;;;4.10;99.90;;;;;;4415821;28;660353;-64
2022/11/12 07:18:05;;;;;;;66.07;29.87;;;4.20;99.90;;;;;;4409515;28;658647;-65
2022/11/12 07:20:56;;;;;;;68.60;29.58;;;4.40;99.90;;;;;;4415776;28;658578;-64
2022/11/12 07:23:43;;;;;;;68.40;32.27;;;4.50;99.90;;;;;;4388820;28;659228;-64
2022/11/12 07:26:32;;;;;;;78.03;36.10;;;4.70;99.90;;;;;;4392815;28;659532;-65
2022/11/12 07:29:19;;;;;;;70.00;32.73;;;4.80;99.90;;;;;;4411760;28;659849;-64
2022/11/12 07:32:06;;;;;;;72.97;32.53;;;5.00;99.90;;;;;;4393074;28;659522;-63
2022/11/12 07:34:53;;;;;;;73.38;32.55;;;5.40;99.90;;;;;;4405090;28;659218;-64
2022/11/12 07:37:40;;;;;;;71.73;33.57;;;5.60;99.90;;;;;;4393020;28;658743;-64
2022/11/12 07:40:27;;;;;;;77.80;34.67;;;5.70;99.90;;;;;;4411747;28;660243;-64
2022/11/12 07:43:16;;;;;;;78.77;36.73;;;5.90;99.90;;;;;;4411743;28;658381;-64
2022/11/12 07:46:04;;;;;;;81.63;36.33;;;6.10;99.90;;;;;;4386682;28;660136;-63
2022/11/12 07:48:51;;;;;;;74.53;34.87;;;6.30;99.90;;;;;;4394777;28;658513;-65
2022/11/12 07:51:38;;;;;;;77.57;36.73;;;6.50;99.90;;;;;;4417841;28;659923;-63
2022/11/12 07:54:25;;;;;;;73.60;36.00;;;6.80;99.90;;;;;;4398756;28;658459;-66
2022/11/12 07:57:12;;;;;;;76.72;32.60;;;7.00;99.90;;;;;;4418391;28;659018;-64
2022/11/12 08:00:01;;;;;;;65.43;31.17;;;7.30;99.90;;;;;;4414163;28;658502;-64
2022/11/12 08:02:48;;;;;;;68.87;34.07;;;7.50;99.90;;;;;;4391619;28;659188;-64
2022/11/12 08:05:35;;;;;;;76.60;33.43;;;7.80;99.90;;;;;;4404034;28;659025;-65
2022/11/12 08:08:22;;;;;;;64.93;30.35;;;8.10;99.90;;;;;;4418246;28;659906;-65
2022/11/12 08:11:09;;;;;;;70.63;33.20;;;8.20;99.90;;;;;;4409486;28;658741;-64
2022/11/12 08:13:56;;;;;;;61.30;28.90;;;8.50;99.90;;;;;;4391427;28;658771;-63
2022/11/12 08:16:45;;;;;;;73.30;32.77;;;8.70;99.90;;;;;;4414225;28;658539;-64
2022/11/12 08:19:32;;;;;;;57.33;29.60;;;8.70;99.90;;;;;;4391433;28;660323;-64
2022/11/12 08:22:20;;;;;;;57.20;28.70;;;8.70;99.90;;;;;;4413942;28;659170;-64
2022/11/12 08:25:08;;;;;;;60.03;28.30;;;8.80;99.90;;;;;;4417956;28;659734;-64
2022/11/12 08:27:58;;;;;;;63.92;30.90;;;9.00;99.90;;;;;;4399633;28;658917;-66
2022/11/12 08:30:45;;;;;;;61.57;30.33;;;9.20;99.90;;;;;;4396850;28;658684;-65
2022/11/12 08:33:34;;;;;;;61.83;31.48;;;9.30;99.90;;;;;;4417901;28;658551;-63
2022/11/12 08:36:21;;;;;;;59.03;28.70;;;9.10;1.00;;;;;;4394270;28;659197;-64
2022/11/12 08:39:08;;;;;;;67.57;30.83;;;9.30;1.00;;;;;;4417890;28;657957;-63
2022/11/12 08:41:55;;;;;;;63.95;31.55;;;9.50;1.00;;;;;;4395874;28;657747;-65
2022/11/12 08:44:42;;;;;;;61.17;29.80;;;9.70;1.00;;;;;;4418763;28;658649;-63
2022/11/12 08:47:29;;;;;;;62.50;30.03;;;10.10;1.00;;;;;;4414778;28;657955;-63
2022/11/12 08:50:18;;;;;;;72.27;31.93;;;10.20;99.90;;;;;;4390562;28;659049;-64
2022/11/12 08:53:06;;;;;;;63.70;28.43;;;10.00;1.00;;;;;;4396793;28;659655;-64
2022/11/12 08:55:54;;;;;;;46.53;23.73;;;10.30;99.90;;;;;;4412570;28;659381;-63
2022/11/12 08:58:41;;;;;;;57.23;26.37;;;10.40;99.90;;;;;;4393351;28;659767;-63
2022/11/12 09:01:28;;;;;;;40.43;21.80;;;10.80;99.90;;;;;;4415342;28;660523;-63
2022/11/12 09:04:15;;;;;;;58.47;28.48;;;10.80;30.60;;;;;;4397404;28;659611;-65
2022/11/12 09:07:04;;;;;;;39.93;20.83;;;11.20;99.90;;;;;;4412224;28;661544;-64
2022/11/12 09:09:51;;;;;;;35.20;18.47;;;11.80;46.80;;;;;;4392176;28;659815;-64
2022/11/12 09:12:38;;;;;;;47.40;24.05;;;12.20;1.00;;;;;;4413082;28;660761;-63
2022/11/12 09:15:25;;;;;;;48.50;24.17;;;12.50;1.00;;;;;;4398260;28;658911;-65
2022/11/12 09:18:13;;;;;;;51.13;24.73;;;12.80;1.00;;;;;;4413151;28;660340;-64
2022/11/12 09:21:01;;;;;;;54.07;25.77;;;12.40;1.00;;;;;;4393970;28;659555;-63
2022/11/12 09:23:50;;;;;;;52.70;28.03;;;11.80;1.00;;;;;;4413153;28;658774;-63
2022/11/12 09:26:37;;;;;;;45.10;21.47;;;11.30;99.90;;;;;;4394727;28;659721;-63
2022/11/12 09:29:24;;;;;;;46.60;25.58;;;12.00;1.00;;;;;;4411582;28;660271;-63
2022/11/12 09:32:11;;;;;;;51.47;26.13;;;12.30;1.00;;;;;;4393230;28;659054;-63
2022/11/12 09:34:58;;;;;;;42.30;22.70;;;12.00;1.00;;;;;;4402348;28;659677;-63
2022/11/12 09:37:45;;;;;;;58.17;26.70;;;12.60;1.00;;;;;;4393870;28;659276;-64
2022/11/12 09:40:46;;;;;;;48.37;25.63;;;12.70;1.00;;;;;;4413002;28;661050;-64
2022/11/12 09:43:34;;;;;;;45.33;21.83;;;12.90;1.00;;;;;;4387834;28;658534;-63
2022/11/12 09:46:28;;;;;;;39.00;22.30;;;12.70;1.00;;;;;;4393808;28;660314;-64
2022/11/12 09:49:18;;;;;;;41.23;23.60;;;12.90;1.00;;;;;;4369509;28;660064;-64
2022/11/12 09:52:10;;;;;;;45.28;24.40;;;12.90;1.00;;;;;;4398917;28;658855;-65
2022/11/12 09:55:00;;;;;;;31.77;15.13;;;13.50;1.00;;;;;;4389758;28;659672;-62
2022/11/12 09:57:48;;;;;;;36.47;18.37;;;13.70;1.00;;;;;;4393831;28;659454;-63
2022/11/12 10:00:36;;;;;;;29.90;16.47;;;13.50;1.00;;;;;;4393283;28;659321;-63
2022/11/12 10:03:29;;;;;;;24.70;13.77;;;13.70;1.00;;;;;;4416881;28;659156;-63
2022/11/12 10:06:17;;;;;;;33.77;15.53;;;13.80;1.00;;;;;;4366319;28;659725;-63
2022/11/12 10:09:07;;;;;;;32.17;14.80;;;13.00;1.00;;;;;;4412286;28;659477;-63
2022/11/12 10:18:44;;;;;;;25.80;14.63;;;14.70;1.00;;;;;;4389526;28;659257;-63
2022/11/12 10:21:34;;;;;;;23.67;12.53;;;15.50;1.00;;;;;;4392226;28;658675;-63
2022/11/12 10:24:22;;;;;;;27.33;12.30;;;15.40;1.00;;;;;;4393430;28;659117;-63
2022/11/12 10:27:13;;;;;;;27.83;12.90;;;15.90;1.00;;;;;;4407570;28;658494;-66
2022/11/12 10:30:01;;;;;;;22.25;10.75;;;15.00;1.00;;;;;;4392899;28;658593;-64
2022/11/12 10:32:51;;;;;;;22.03;10.50;;;15.10;1.00;;;;;;4412366;28;659368;-63
2022/11/12 10:35:38;;;;;;;26.47;10.40;;;15.60;1.00;;;;;;4378861;28;659085;-63
2022/11/12 10:38:26;;;;;;;22.83;8.93;;;15.40;1.00;;;;;;4403090;28;658970;-65
2022/11/12 10:41:21;;;;;;;14.57;8.10;;;15.40;1.00;;;;;;4413157;28;659064;-64
2022/11/12 10:44:13;;;;;;;20.83;9.30;;;15.10;1.00;;;;;;4390469;28;658042;-64
2022/11/12 10:47:23;;;;;;;24.10;9.17;;;15.90;1.00;;;;;;4371555;28;657413;-65
2022/11/12 10:50:20;;;;;;;17.07;8.97;;;16.20;1.00;;;;;;4394505;28;657392;-66
2022/11/12 10:53:08;;;;;;;18.83;8.67;;;15.80;1.00;;;;;;4362794;28;659526;-64
2022/11/12 10:55:56;;;;;;;17.77;7.03;;;16.30;1.00;;;;;;4405440;28;657809;-64
2022/11/12 10:58:43;;;;;;;18.58;8.68;;;16.50;1.00;;;;;;4413367;28;659226;-62
2022/11/12 11:01:30;;;;;;;17.73;7.90;;;16.40;1.00;;;;;;4394239;28;657681;-64
2022/11/12 11:04:24;;;;;;;15.00;7.80;;;15.90;1.00;;;;;;4412910;28;658964;-64
2022/11/12 11:07:21;;;;;;;21.27;9.73;;;15.30;1.00;;;;;;4363142;28;657906;-64
2022/11/12 11:10:22;;;;;;;16.93;9.13;;;15.00;1.00;;;;;;4389676;28;658394;-64
2022/11/12 11:13:18;;;;;;;20.67;9.60;;;14.40;1.00;;;;;;4390454;28;657578;-63
2022/11/12 11:16:06;;;;;;;21.53;10.30;;;15.30;1.00;;;;;;4379597;28;657865;-65
2022/11/12 11:18:55;;;;;;;23.07;10.23;;;15.10;1.00;;;;;;4412408;28;659324;-64
2022/11/12 11:21:58;;;;;;;21.45;10.75;;;16.10;1.00;;;;;;4396424;28;659609;-64
2022/11/12 11:24:51;;;;;;;20.87;11.00;;;16.10;1.00;;;;;;4396446;28;658578;-64
2022/11/12 11:27:41;;;;;;;22.03;11.23;;;16.30;1.00;;;;;;4392356;28;658833;-64
2022/11/12 11:30:28;;;;;;;26.53;12.07;;;17.10;1.00;;;;;;4392066;28;659017;-64
2022/11/12 11:33:22;;;;;;;26.13;12.07;;;17.00;1.00;;;;;;4400696;28;658946;-65
2022/11/12 11:36:16;;;;;;;27.57;11.13;;;17.20;1.00;;;;;;4387271;28;659224;-64
2022/11/12 11:39:06;;;;;;;23.40;12.00;;;16.80;1.00;;;;;;4392327;28;659479;-63
2022/11/12 11:42:03;;;;;;;22.07;12.33;;;16.20;1.00;;;;;;4391839;28;659427;-64
2022/11/12 11:44:54;;;;;;;27.83;11.53;;;17.40;1.00;;;;;;4373036;28;658695;-65
2022/11/12 11:47:43;;;;;;;24.27;11.80;;;17.90;1.00;;;;;;4395892;28;658669;-63
2022/11/12 11:50:30;;;;;;;22.30;12.23;;;17.30;1.00;;;;;;4406726;28;658677;-64
2022/11/12 11:53:21;;;;;;;26.73;13.60;;;17.40;1.00;;;;;;4413395;28;658736;-63
2022/11/12 11:56:10;;;;;;;25.53;12.07;;;17.70;1.00;;;;;;4389446;28;658634;-64
2022/11/12 11:59:07;;;;;;;20.42;11.77;;;17.50;1.00;;;;;;4395807;28;659937;-63
2022/11/12 12:02:06;;;;;;;25.67;12.40;;;17.90;1.00;;;;;;4391594;28;658888;-63
2022/11/12 12:04:56;;;;;;;24.30;11.47;;;19.00;1.00;;;;;;4389906;28;659120;-64
2022/11/12 12:07:46;;;;;;;25.43;12.33;;;19.20;1.00;;;;;;4391423;28;658658;-63
2022/11/12 12:10:42;;;;;;;27.57;12.53;;;17.70;1.00;;;;;;4391167;28;659370;-63
2022/11/12 12:13:33;;;;;;;22.47;12.17;;;18.20;1.00;;;;;;4391375;28;658928;-64
2022/11/12 12:16:34;;;;;;;23.77;11.57;;;18.50;1.00;;;;;;4373091;28;659467;-66
2022/11/12 12:19:28;;;;;;;29.23;12.40;;;19.40;1.00;;;;;;4392263;28;659190;-63
2022/11/12 12:22:17;;;;;;;17.93;6.90;;;18.30;1.00;;;;;;4381829;28;659152;-64
2022/11/12 12:25:09;;;;;;;23.57;11.43;;;19.80;1.00;;;;;;4415287;28;657500;-65
2022/11/12 12:27:59;;;;;;;23.20;8.87;;;20.10;1.00;;;;;;4391311;28;659507;-64
2022/11/12 12:30:49;;;;;;;19.50;10.17;;;20.20;1.00;;;;;;4396581;28;657715;-63
2022/11/12 12:33:39;;;;;;;19.90;9.57;;;17.80;1.00;;;;;;4395044;28;658679;-63
2022/11/12 12:36:30;;;;;;;22.77;10.17;;;17.60;1.00;;;;;;4392546;28;659185;-63
2022/11/12 12:39:18;;;;;;;11.93;6.17;;;17.50;1.00;;;;;;4393603;28;659350;-63
2022/11/12 12:42:08;;;;;;;19.33;7.40;;;19.20;1.00;;;;;;4396208;28;657407;-65
2022/11/12 12:45:06;;;;;;;15.27;7.13;;;17.80;1.00;;;;;;4390052;28;657643;-64
2022/11/12 12:47:53;;;;;;;17.53;6.97;;;16.60;1.00;;;;;;4385841;28;658486;-63
2022/11/12 12:50:42;;;;;;;13.60;7.17;;;17.00;1.00;;;;;;4395897;28;657515;-63
2022/11/12 12:53:33;;;;;;;21.10;7.13;;;17.50;1.00;;;;;;4414708;28;657399;-64
2022/11/12 12:56:42;;;;;;;14.20;6.83;;;18.80;1.00;;;;;;4373269;28;657517;-64
2022/11/12 12:59:29;;;;;;;17.73;7.20;;;19.40;1.00;;;;;;4392066;28;657536;-63
2022/11/12 13:02:19;;;;;;;17.23;7.30;;;19.10;1.00;;;;;;4395477;28;658804;-64
2022/11/12 13:05:20;;;;;;;16.27;7.40;;;19.00;1.00;;;;;;4395453;28;659130;-63
2022/11/12 13:08:10;;;;;;;13.67;5.70;;;20.20;1.00;;;;;;4367595;28;658237;-62
2022/11/12 13:10:58;;;;;;;14.37;7.73;;;19.90;1.00;;;;;;4395662;28;658183;-63
2022/11/12 13:13:45;;;;;;;19.50;8.03;;;19.00;1.00;;;;;;4395666;28;657915;-65
2022/11/12 13:16:58;;;;;;;15.80;7.20;;;20.00;1.00;;;;;;4418820;28;658232;-63
2022/11/12 13:19:46;;;;;;;15.80;8.40;;;20.00;1.00;;;;;;4381779;28;657653;-64
2022/11/12 13:22:33;;;;;;;19.20;8.90;;;19.90;1.00;;;;;;4415498;28;657294;-64
2022/11/12 13:25:29;;;;;;;19.13;8.43;;;20.30;1.00;;;;;;4395446;28;657707;-63
2022/11/12 13:28:16;;;;;;;18.50;8.23;;;20.70;1.00;;;;;;4392028;28;657709;-65
2022/11/12 13:31:03;;;;;;;15.47;8.43;;;21.10;1.00;;;;;;4416340;28;658327;-63
2022/11/12 13:33:50;;;;;;;18.80;8.93;;;21.10;1.00;;;;;;4386192;28;657505;-64
2022/11/12 13:36:38;;;;;;;17.63;8.80;;;20.30;1.00;;;;;;4425422;28;658651;-64
2022/11/12 13:39:25;;;;;;;15.83;8.17;;;21.50;1.00;;;;;;4405441;28;657619;-65
2022/11/12 13:45:21;;;;;;;16.67;8.53;;;23.10;1.00;;;;;;4385957;28;657955;-65
2022/11/12 13:48:09;;;;;;;18.40;9.37;;;23.50;1.00;;;;;;4413777;28;658819;-64
2022/11/12 13:50:57;;;;;;;18.47;9.07;;;21.50;1.00;;;;;;4392892;28;657606;-64
2022/11/12 13:53:44;;;;;;;20.13;10.00;;;22.30;1.00;;;;;;4413748;28;658527;-64
2022/11/12 13:56:32;;;;;;;18.53;8.40;;;19.90;1.00;;;;;;4391976;28;658736;-64
2022/11/12 13:59:22;;;;;;;22.10;9.40;;;21.30;1.00;;;;;;4411174;28;658442;-64
2022/11/12 14:02:19;;;;;;;20.00;9.90;;;20.40;1.00;;;;;;4391829;28;658492;-64
2022/11/12 14:05:13;;;;;;;19.40;9.30;;;19.90;1.00;;;;;;4395619;28;657312;-64
2022/11/12 14:08:11;;;;;;;24.63;10.17;;;19.40;1.00;;;;;;4378471;28;657951;-65
2022/11/12 14:11:09;;;;;;;20.90;9.30;;;18.60;1.00;;;;;;4390480;28;658959;-64
2022/11/12 14:14:00;;;;;;;21.93;11.03;;;17.70;1.00;;;;;;4373109;28;658387;-64
2022/11/12 14:16:54;;;;;;;18.40;9.53;;;18.20;1.00;;;;;;4394617;28;658958;-64
2022/11/12 14:20:06;;;;;;;22.93;10.23;;;18.10;1.00;;;;;;4395170;28;657695;-64
2022/11/12 14:22:53;;;;;;;18.00;9.17;;;18.00;1.00;;;;;;4390276;28;658993;-64
2022/11/12 14:25:47;;;;;;;21.40;9.63;;;16.40;1.00;;;;;;4395468;28;658121;-64
2022/11/12 14:28:36;;;;;;;20.97;8.30;;;15.70;1.00;;;;;;4388484;28;657431;-65
2022/11/12 14:31:24;;;;;;;21.87;9.20;;;14.90;1.00;;;;;;4414304;28;659388;-64
2022/11/12 14:34:21;;;;;;;22.27;9.27;;;14.40;1.00;;;;;;4383897;28;657628;-64
2022/11/12 14:37:23;;;;;;;23.33;9.77;;;14.00;1.00;;;;;;4390284;28;658286;-64
2022/11/12 14:40:16;;;;;;;21.70;9.87;;;13.60;1.00;;;;;;4377798;28;657672;-65
2022/11/12 14:43:03;;;;;;;23.97;9.40;;;13.20;1.00;;;;;;4390249;28;658490;-64
2022/11/12 14:45:51;;;;;;;19.57;9.17;;;12.80;1.00;;;;;;4397767;28;657610;-65
2022/11/12 14:48:45;;;;;;;20.27;9.30;;;12.50;1.00;;;;;;4416171;28;658485;-64